sensor_id;sensor_type;location;lat;lon;timestamp;temperature;humidity
16327;DHT22;34812;49.846;9.610;2023-02-28T00:00:20;-2.00;99.90
16327;DHT22;34812;49.846;9.610;2023-02-28T00:01:22;-2.00;99.90
16327;DHT22;34812;49.846;9.610;2023-02-28T00:02:23;-2.00;99.90
16327;DHT22;34812;49.846;9.610;2023-02-28T00:03:25;-2.00;99.90
16327;DHT22;34812;49.846;9.610;2023-02-28T00:04:25;-2.00;99.90
16327;DHT22;34812;49.846;9.610;2023-02-28T00:05:28;-2.00;99.90
16327;DHT22;34812;49.846;9.610;2023-02-28T00:06:30;-1.90;99.90
16327;DHT22;34812;49.846;9.610;2023-02-28T00:07:32;-1.90;99.90
16327;DHT22;34812;49.846;9.610;2023-02-28T00:08:33;-1.90;99.90
16327;DHT22;34812;49.846;9.610;2023-02-28T00:09:35;-1.90;99.90
16327;DHT22;34812;49.846;9.610;2023-02-28T00:10:36;-1.90;99.90
16327;DHT22;34812;49.846;9.610;2023-02-28T00:11:37;-2.00;99.90
16327;DHT22;34812;49.846;9.610;2023-02-28T00:12:39;-2.00;99.90
16327;DHT22;34812;49.846;9.610;2023-02-28T00:13:42;-2.10;99.90
16327;DHT22;34812;49.846;9.610;2023-02-28T00:14:46;-2.00;99.90
16327;DHT22;34812;49.846;9.610;2023-02-28T00:15:58;-2.00;99.90
16327;DHT22;34812;49.846;9.610;2023-02-28T00:16:59;-2.10;99.90
16327;DHT22;34812;49.846;9.610;2023-02-28T00:18:02;-2.10;99.90
16327;DHT22;34812;49.846;9.610;2023-02-28T00:19:03;-2.10;99.90
16327;DHT22;34812;49.846;9.610;2023-02-28T00:20:06;-2.10;99.90
16327;DHT22;34812;49.846;9.610;2023-02-28T00:21:08;-2.10;99.90
16327;DHT22;34812;49.846;9.610;2023-02-28T00:22:11;-2.10;99.90
16327;DHT22;34812;49.846;9.610;2023-02-28T00:23:12;-2.20;99.90
16327;DHT22;34812;49.846;9.610;2023-02-28T00:24:14;-2.20;99.90
16327;DHT22;34812;49.846;9.610;2023-02-28T00:25:18;-2.20;99.90
16327;DHT22;34812;49.846;9.610;2023-02-28T00:26:20;-2.20;99.90
16327;DHT22;34812;49.846;9.610;2023-02-28T00:27:20;-2.20;99.90
16327;DHT22;34812;49.846;9.610;2023-02-28T00:28:23;-2.10;99.90
16327;DHT22;34812;49.846;9.610;2023-02-28T00:29:24;-2.10;99.90
16327;DHT22;34812;49.846;9.610;2023-02-28T00:30:26;-2.10;99.90
16327;DHT22;34812;49.846;9.610;2023-02-28T00:31:26;-2.10;99.90
16327;DHT22;34812;49.846;9.610;2023-02-28T00:32:28;-2.10;99.90
16327;DHT22;34812;49.846;9.610;2023-02-28T00:33:30;-2.10;99.90
16327;DHT22;34812;49.846;9.610;2023-02-28T00:34:31;-2.20;99.90
16327;DHT22;34812;49.846;9.610;2023-02-28T00:35:38;-2.20;99.90
16327;DHT22;34812;49.846;9.610;2023-02-28T00:36:40;-2.20;99.90
16327;DHT22;34812;49.846;9.610;2023-02-28T00:37:45;-2.20;99.90
16327;DHT22;34812;49.846;9.610;2023-02-28T00:38:47;-2.20;99.90
16327;DHT22;34812;49.846;9.610;2023-02-28T00:39:48;-2.20;99.90
16327;DHT22;34812;49.846;9.610;2023-02-28T00:40:50;-2.10;99.90
16327;DHT22;34812;49.846;9.610;2023-02-28T00:41:51;-2.10;99.90
16327;DHT22;34812;49.846;9.610;2023-02-28T00:42:52;-2.10;99.90
16327;DHT22;34812;49.846;9.610;2023-02-28T00:43:53;-2.10;99.90
16327;DHT22;34812;49.846;9.610;2023-02-28T00:44:55;-2.10;99.90
16327;DHT22;34812;49.846;9.610;2023-02-28T00:45:56;-2.10;99.90
16327;DHT22;34812;49.846;9.610;2023-02-28T00:46:58;-2.10;99.90
16327;DHT22;34812;49.846;9.610;2023-02-28T00:47:59;-2.10;99.90
16327;DHT22;34812;49.846;9.610;2023-02-28T00:49:01;-2.10;99.90
16327;DHT22;34812;49.846;9.610;2023-02-28T00:50:03;-2.10;99.90
16327;DHT22;34812;49.846;9.610;2023-02-28T00:51:05;-2.10;99.90
16327;DHT22;34812;49.846;9.610;2023-02-28T00:52:06;-2.00;99.90
16327;DHT22;34812;49.846;9.610;2023-02-28T00:53:09;-2.00;99.90
16327;DHT22;34812;49.846;9.610;2023-02-28T00:54:10;-1.90;99.90
16327;DHT22;34812;49.846;9.610;2023-02-28T00:55:11;-1.90;99.90
16327;DHT22;34812;49.846;9.610;2023-02-28T00:56:12;-1.90;99.90
16327;DHT22;34812;49.846;9.610;2023-02-28T00:57:14;-1.90;99.90
16327;DHT22;34812;49.846;9.610;2023-02-28T00:58:15;-1.90;99.90
16327;DHT22;34812;49.846;9.610;2023-02-28T00:59:17;-1.80;99.90
16327;DHT22;34812;49.846;9.610;2023-02-28T01:00:19;-1.90;99.90
16327;DHT22;34812;49.846;9.610;2023-02-28T01:01:21;-1.90;99.90
16327;DHT22;34812;49.846;9.610;2023-02-28T01:02:22;-1.90;99.90
16327;DHT22;34812;49.846;9.610;2023-02-28T01:03:26;-1.90;99.90
16327;DHT22;34812;49.846;9.610;2023-02-28T01:04:27;-1.80;99.90
16327;DHT22;34812;49.846;9.610;2023-02-28T01:05:29;-1.90;99.90
16327;DHT22;34812;49.846;9.610;2023-02-28T01:06:30;-1.90;99.90
16327;DHT22;34812;49.846;9.610;2023-02-28T01:07:32;-1.80;99.90
16327;DHT22;34812;49.846;9.610;2023-02-28T01:08:34;-1.90;99.90
16327;DHT22;34812;49.846;9.610;2023-02-28T01:09:36;-1.90;99.90
16327;DHT22;34812;49.846;9.610;2023-02-28T01:10:38;-1.90;99.90
16327;DHT22;34812;49.846;9.610;2023-02-28T01:11:42;-1.90;99.90
16327;DHT22;34812;49.846;9.610;2023-02-28T01:12:44;-1.90;99.90
16327;DHT22;34812;49.846;9.610;2023-02-28T01:13:46;-1.90;99.90
16327;DHT22;34812;49.846;9.610;2023-02-28T01:14:47;-1.90;99.90
16327;DHT22;34812;49.846;9.610;2023-02-28T01:15:50;-1.90;99.90
16327;DHT22;34812;49.846;9.610;2023-02-28T01:16:51;-1.90;99.90
16327;DHT22;34812;49.846;9.610;2023-02-28T01:17:53;-1.90;99.90
16327;DHT22;34812;49.846;9.610;2023-02-28T01:18:56;-2.00;99.90
16327;DHT22;34812;49.846;9.610;2023-02-28T01:19:58;-1.90;99.90
16327;DHT22;34812;49.846;9.610;2023-02-28T01:21:03;-2.00;99.90
16327;DHT22;34812;49.846;9.610;2023-02-28T01:22:06;-2.00;99.90
16327;DHT22;34812;49.846;9.610;2023-02-28T01:23:06;-2.10;99.90
16327;DHT22;34812;49.846;9.610;2023-02-28T01:24:10;-2.00;99.90
16327;DHT22;34812;49.846;9.610;2023-02-28T01:25:10;-2.10;99.90
16327;DHT22;34812;49.846;9.610;2023-02-28T01:26:15;-2.10;99.90
16327;DHT22;34812;49.846;9.610;2023-02-28T01:27:16;-2.10;99.90
16327;DHT22;34812;49.846;9.610;2023-02-28T01:28:18;-2.10;99.90
16327;DHT22;34812;49.846;9.610;2023-02-28T01:29:19;-2.10;99.90
16327;DHT22;34812;49.846;9.610;2023-02-28T01:30:21;-2.10;99.90
16327;DHT22;34812;49.846;9.610;2023-02-28T01:31:22;-2.10;99.90
16327;DHT22;34812;49.846;9.610;2023-02-28T01:32:24;-2.10;99.90
16327;DHT22;34812;49.846;9.610;2023-02-28T01:33:25;-2.10;99.90
16327;DHT22;34812;49.846;9.610;2023-02-28T01:34:27;-2.00;99.90
16327;DHT22;34812;49.846;9.610;2023-02-28T01:35:28;-2.10;99.90
16327;DHT22;34812;49.846;9.610;2023-02-28T01:36:30;-2.10;99.90
16327;DHT22;34812;49.846;9.610;2023-02-28T01:37:30;-2.10;99.90
16327;DHT22;34812;49.846;9.610;2023-02-28T01:38:33;-2.10;99.90
16327;DHT22;34812;49.846;9.610;2023-02-28T01:39:35;-2.10;99.90
16327;DHT22;34812;49.846;9.610;2023-02-28T01:40:37;-2.10;99.90
16327;DHT22;34812;49.846;9.610;2023-02-28T01:41:39;-2.20;99.90
16327;DHT22;34812;49.846;9.610;2023-02-28T01:42:41;-2.20;99.90
16327;DHT22;34812;49.846;9.610;2023-02-28T01:44:02;-2.20;99.90
16327;DHT22;34812;49.846;9.610;2023-02-28T01:45:21;-2.30;99.90
16327;DHT22;34812;49.846;9.610;2023-02-28T01:46:22;-2.30;99.90
16327;DHT22;34812;49.846;9.610;2023-02-28T01:47:26;-2.20;99.90
16327;DHT22;34812;49.846;9.610;2023-02-28T01:48:30;-2.30;99.90
16327;DHT22;34812;49.846;9.610;2023-02-28T01:49:32;-2.30;99.90
16327;DHT22;34812;49.846;9.610;2023-02-28T01:50:36;-2.30;99.90
16327;DHT22;34812;49.846;9.610;2023-02-28T01:51:42;-2.20;99.90
16327;DHT22;34812;49.846;9.610;2023-02-28T01:52:47;-2.20;99.90
16327;DHT22;34812;49.846;9.610;2023-02-28T01:53:52;-2.20;99.90
16327;DHT22;34812;49.846;9.610;2023-02-28T01:54:59;-2.20;99.90
16327;DHT22;34812;49.846;9.610;2023-02-28T01:56:04;-2.20;99.90
16327;DHT22;34812;49.846;9.610;2023-02-28T01:57:09;-2.20;99.90
16327;DHT22;34812;49.846;9.610;2023-02-28T01:58:12;-2.20;99.90
16327;DHT22;34812;49.846;9.610;2023-02-28T01:59:19;-2.20;99.90
16327;DHT22;34812;49.846;9.610;2023-02-28T02:00:24;-2.20;99.90
16327;DHT22;34812;49.846;9.610;2023-02-28T02:01:27;-2.20;99.90
16327;DHT22;34812;49.846;9.610;2023-02-28T02:02:30;-2.20;99.90
16327;DHT22;34812;49.846;9.610;2023-02-28T02:03:31;-2.20;99.90
16327;DHT22;34812;49.846;9.610;2023-02-28T02:04:37;-2.20;99.90
16327;DHT22;34812;49.846;9.610;2023-02-28T02:05:40;-2.20;99.90
16327;DHT22;34812;49.846;9.610;2023-02-28T02:06:48;-2.20;99.90
16327;DHT22;34812;49.846;9.610;2023-02-28T02:07:52;-2.20;99.90
16327;DHT22;34812;49.846;9.610;2023-02-28T02:08:55;-2.20;99.90
16327;DHT22;34812;49.846;9.610;2023-02-28T02:10:04;-2.20;99.90
16327;DHT22;34812;49.846;9.610;2023-02-28T02:11:08;-2.20;99.90
16327;DHT22;34812;49.846;9.610;2023-02-28T02:12:20;-2.30;99.90
16327;DHT22;34812;49.846;9.610;2023-02-28T02:13:37;-2.30;99.90
16327;DHT22;34812;49.846;9.610;2023-02-28T02:14:56;-2.30;99.90
16327;DHT22;34812;49.846;9.610;2023-02-28T02:16:06;-2.40;99.90
16327;DHT22;34812;49.846;9.610;2023-02-28T02:17:18;-2.40;99.90
16327;DHT22;34812;49.846;9.610;2023-02-28T02:18:30;-2.40;99.90
16327;DHT22;34812;49.846;9.610;2023-02-28T02:23:07;-2.50;99.90
16327;DHT22;34812;49.846;9.610;2023-02-28T02:24:45;-2.60;99.90
16327;DHT22;34812;49.846;9.610;2023-02-28T02:25:53;-2.70;99.90
16327;DHT22;34812;49.846;9.610;2023-02-28T02:27:16;-2.70;99.90
16327;DHT22;34812;49.846;9.610;2023-02-28T02:28:43;-2.70;99.90
16327;DHT22;34812;49.846;9.610;2023-02-28T02:30:14;-2.80;99.90
16327;DHT22;34812;49.846;9.610;2023-02-28T02:31:54;-2.80;99.90
16327;DHT22;34812;49.846;9.610;2023-02-28T02:33:15;-2.80;99.90
16327;DHT22;34812;49.846;9.610;2023-02-28T02:34:53;-2.80;99.90
16327;DHT22;34812;49.846;9.610;2023-02-28T02:36:02;-2.70;99.90
16327;DHT22;34812;49.846;9.610;2023-02-28T02:37:15;-2.70;99.90
16327;DHT22;34812;49.846;9.610;2023-02-28T02:38:31;-2.70;99.90
16327;DHT22;34812;49.846;9.610;2023-02-28T02:39:47;-2.70;99.90
16327;DHT22;34812;49.846;9.610;2023-02-28T02:40:56;-2.70;99.90
16327;DHT22;34812;49.846;9.610;2023-02-28T02:42:00;-2.70;99.90
16327;DHT22;34812;49.846;9.610;2023-02-28T02:43:08;-2.60;99.90
16327;DHT22;34812;49.846;9.610;2023-02-28T02:44:17;-2.60;99.90
16327;DHT22;34812;49.846;9.610;2023-02-28T02:45:24;-2.60;99.90
16327;DHT22;34812;49.846;9.610;2023-02-28T02:46:31;-2.50;99.90
16327;DHT22;34812;49.846;9.610;2023-02-28T02:47:35;-2.50;99.90
16327;DHT22;34812;49.846;9.610;2023-02-28T02:48:38;-2.50;99.90
16327;DHT22;34812;49.846;9.610;2023-02-28T02:49:43;-2.40;99.90
16327;DHT22;34812;49.846;9.610;2023-02-28T02:50:50;-2.30;99.90
16327;DHT22;34812;49.846;9.610;2023-02-28T02:51:53;-2.30;99.90
16327;DHT22;34812;49.846;9.610;2023-02-28T02:52:57;-2.30;99.90
16327;DHT22;34812;49.846;9.610;2023-02-28T02:54:05;-2.30;99.90
16327;DHT22;34812;49.846;9.610;2023-02-28T02:55:12;-2.20;99.90
16327;DHT22;34812;49.846;9.610;2023-02-28T02:56:13;-2.20;99.90
16327;DHT22;34812;49.846;9.610;2023-02-28T02:57:21;-2.10;99.90
16327;DHT22;34812;49.846;9.610;2023-02-28T02:58:26;-2.10;99.90
16327;DHT22;34812;49.846;9.610;2023-02-28T02:59:30;-2.10;99.90
16327;DHT22;34812;49.846;9.610;2023-02-28T03:00:35;-2.10;99.90
16327;DHT22;34812;49.846;9.610;2023-02-28T03:01:40;-2.10;99.90
16327;DHT22;34812;49.846;9.610;2023-02-28T03:02:43;-2.10;99.90
16327;DHT22;34812;49.846;9.610;2023-02-28T03:03:46;-2.10;99.90
16327;DHT22;34812;49.846;9.610;2023-02-28T03:04:51;-2.10;99.90
16327;DHT22;34812;49.846;9.610;2023-02-28T03:05:58;-2.10;99.90
16327;DHT22;34812;49.846;9.610;2023-02-28T03:06:59;-2.10;99.90
16327;DHT22;34812;49.846;9.610;2023-02-28T03:08:03;-2.10;99.90
16327;DHT22;34812;49.846;9.610;2023-02-28T03:09:06;-2.10;99.90
16327;DHT22;34812;49.846;9.610;2023-02-28T03:10:26;-2.10;99.90
16327;DHT22;34812;49.846;9.610;2023-02-28T03:11:28;-2.10;99.90
16327;DHT22;34812;49.846;9.610;2023-02-28T03:12:36;-2.10;99.90
16327;DHT22;34812;49.846;9.610;2023-02-28T03:13:59;-2.10;99.90
16327;DHT22;34812;49.846;9.610;2023-02-28T03:15:16;-2.10;99.90
16327;DHT22;34812;49.846;9.610;2023-02-28T03:18:06;-2.10;99.90
16327;DHT22;34812;49.846;9.610;2023-02-28T03:19:33;-2.10;99.90
16327;DHT22;34812;49.846;9.610;2023-02-28T03:20:40;-2.10;99.90
16327;DHT22;34812;49.846;9.610;2023-02-28T03:21:53;-2.20;99.90
16327;DHT22;34812;49.846;9.610;2023-02-28T03:23:02;-2.20;99.90
16327;DHT22;34812;49.846;9.610;2023-02-28T03:24:11;-2.20;99.90
16327;DHT22;34812;49.846;9.610;2023-02-28T03:25:19;-2.20;99.90
16327;DHT22;34812;49.846;9.610;2023-02-28T03:26:23;-2.20;99.90
16327;DHT22;34812;49.846;9.610;2023-02-28T03:27:28;-2.20;99.90
16327;DHT22;34812;49.846;9.610;2023-02-28T03:28:34;-2.20;99.90
16327;DHT22;34812;49.846;9.610;2023-02-28T03:29:40;-2.20;99.90
16327;DHT22;34812;49.846;9.610;2023-02-28T03:30:48;-2.30;99.90
16327;DHT22;34812;49.846;9.610;2023-02-28T03:31:56;-2.30;99.90
16327;DHT22;34812;49.846;9.610;2023-02-28T03:33:03;-2.30;99.90
16327;DHT22;34812;49.846;9.610;2023-02-28T03:34:10;-2.30;99.90
16327;DHT22;34812;49.846;9.610;2023-02-28T03:35:18;-2.40;99.90
16327;DHT22;34812;49.846;9.610;2023-02-28T03:36:25;-2.40;99.90
16327;DHT22;34812;49.846;9.610;2023-02-28T03:37:30;-2.40;99.90
16327;DHT22;34812;49.846;9.610;2023-02-28T03:38:39;-2.40;99.90
16327;DHT22;34812;49.846;9.610;2023-02-28T03:39:45;-2.50;99.90
16327;DHT22;34812;49.846;9.610;2023-02-28T03:40:49;-2.50;99.90
16327;DHT22;34812;49.846;9.610;2023-02-28T03:41:54;-2.50;99.90
16327;DHT22;34812;49.846;9.610;2023-02-28T03:42:59;-2.50;99.90
16327;DHT22;34812;49.846;9.610;2023-02-28T03:44:07;-2.50;99.90
16327;DHT22;34812;49.846;9.610;2023-02-28T03:45:13;-2.50;99.90
16327;DHT22;34812;49.846;9.610;2023-02-28T03:46:18;-2.50;99.90
16327;DHT22;34812;49.846;9.610;2023-02-28T03:47:24;-2.50;99.90
16327;DHT22;34812;49.846;9.610;2023-02-28T03:48:32;-2.50;99.90
16327;DHT22;34812;49.846;9.610;2023-02-28T03:49:38;-2.50;99.90
16327;DHT22;34812;49.846;9.610;2023-02-28T03:50:45;-2.50;99.90
16327;DHT22;34812;49.846;9.610;2023-02-28T03:51:47;-2.50;99.90
16327;DHT22;34812;49.846;9.610;2023-02-28T03:52:56;-2.60;99.90
16327;DHT22;34812;49.846;9.610;2023-02-28T03:54:04;-2.60;99.90
16327;DHT22;34812;49.846;9.610;2023-02-28T03:55:10;-2.60;99.90
16327;DHT22;34812;49.846;9.610;2023-02-28T03:56:16;-2.60;99.90
16327;DHT22;34812;49.846;9.610;2023-02-28T03:57:23;-2.50;99.90
16327;DHT22;34812;49.846;9.610;2023-02-28T03:58:30;-2.50;99.90
16327;DHT22;34812;49.846;9.610;2023-02-28T03:59:37;-2.40;99.90
16327;DHT22;34812;49.846;9.610;2023-02-28T04:00:43;-2.50;99.90
16327;DHT22;34812;49.846;9.610;2023-02-28T04:01:47;-2.40;99.90
16327;DHT22;34812;49.846;9.610;2023-02-28T04:02:49;-2.50;99.90
16327;DHT22;34812;49.846;9.610;2023-02-28T04:03:53;-2.50;99.90
16327;DHT22;34812;49.846;9.610;2023-02-28T04:04:54;-2.50;99.90
16327;DHT22;34812;49.846;9.610;2023-02-28T04:05:57;-2.60;99.90
16327;DHT22;34812;49.846;9.610;2023-02-28T04:07:04;-2.60;99.90
16327;DHT22;34812;49.846;9.610;2023-02-28T04:08:08;-2.50;99.90
16327;DHT22;34812;49.846;9.610;2023-02-28T04:09:10;-2.50;99.90
16327;DHT22;34812;49.846;9.610;2023-02-28T04:10:13;-2.50;99.90
16327;DHT22;34812;49.846;9.610;2023-02-28T04:11:20;-2.50;99.90
16327;DHT22;34812;49.846;9.610;2023-02-28T04:12:22;-2.50;99.90
16327;DHT22;34812;49.846;9.610;2023-02-28T04:13:23;-2.50;99.90
16327;DHT22;34812;49.846;9.610;2023-02-28T04:14:25;-2.50;99.90
16327;DHT22;34812;49.846;9.610;2023-02-28T04:15:26;-2.50;99.90
16327;DHT22;34812;49.846;9.610;2023-02-28T04:16:28;-2.50;99.90
16327;DHT22;34812;49.846;9.610;2023-02-28T04:17:29;-2.50;99.90
16327;DHT22;34812;49.846;9.610;2023-02-28T04:18:31;-2.50;99.90
16327;DHT22;34812;49.846;9.610;2023-02-28T04:19:31;-2.50;99.90
16327;DHT22;34812;49.846;9.610;2023-02-28T04:20:33;-2.50;99.90
16327;DHT22;34812;49.846;9.610;2023-02-28T04:21:36;-2.50;99.90
16327;DHT22;34812;49.846;9.610;2023-02-28T04:22:39;-2.50;99.90
16327;DHT22;34812;49.846;9.610;2023-02-28T04:23:41;-2.50;99.90
16327;DHT22;34812;49.846;9.610;2023-02-28T04:24:43;-2.50;99.90
16327;DHT22;34812;49.846;9.610;2023-02-28T04:25:44;-2.60;99.90
16327;DHT22;34812;49.846;9.610;2023-02-28T04:26:47;-2.60;99.90
16327;DHT22;34812;49.846;9.610;2023-02-28T04:27:48;-2.50;99.90
16327;DHT22;34812;49.846;9.610;2023-02-28T04:28:50;-2.60;99.90
16327;DHT22;34812;49.846;9.610;2023-02-28T04:29:51;-2.60;99.90
16327;DHT22;34812;49.846;9.610;2023-02-28T04:30:56;-2.60;99.90
16327;DHT22;34812;49.846;9.610;2023-02-28T04:31:58;-2.60;99.90
16327;DHT22;34812;49.846;9.610;2023-02-28T04:33:00;-2.60;99.90
16327;DHT22;34812;49.846;9.610;2023-02-28T04:34:01;-2.60;99.90
16327;DHT22;34812;49.846;9.610;2023-02-28T04:35:04;-2.60;99.90
16327;DHT22;34812;49.846;9.610;2023-02-28T04:36:07;-2.50;99.90
16327;DHT22;34812;49.846;9.610;2023-02-28T04:37:09;-2.50;99.90
16327;DHT22;34812;49.846;9.610;2023-02-28T04:38:10;-2.50;99.90
16327;DHT22;34812;49.846;9.610;2023-02-28T04:39:13;-2.40;99.90
16327;DHT22;34812;49.846;9.610;2023-02-28T04:40:14;-2.40;99.90
16327;DHT22;34812;49.846;9.610;2023-02-28T04:41:16;-2.40;99.90
16327;DHT22;34812;49.846;9.610;2023-02-28T04:42:17;-2.40;99.90
16327;DHT22;34812;49.846;9.610;2023-02-28T04:43:19;-2.40;99.90
16327;DHT22;34812;49.846;9.610;2023-02-28T04:44:20;-2.40;99.90
16327;DHT22;34812;49.846;9.610;2023-02-28T04:45:21;-2.30;99.90
16327;DHT22;34812;49.846;9.610;2023-02-28T04:46:23;-2.40;99.90
16327;DHT22;34812;49.846;9.610;2023-02-28T04:47:25;-2.40;99.90
16327;DHT22;34812;49.846;9.610;2023-02-28T04:48:28;-2.40;99.90
16327;DHT22;34812;49.846;9.610;2023-02-28T04:49:29;-2.40;99.90
16327;DHT22;34812;49.846;9.610;2023-02-28T04:50:30;-2.50;99.90
16327;DHT22;34812;49.846;9.610;2023-02-28T04:51:32;-2.50;99.90
16327;DHT22;34812;49.846;9.610;2023-02-28T04:52:34;-2.50;99.90
16327;DHT22;34812;49.846;9.610;2023-02-28T04:53:35;-2.50;99.90
16327;DHT22;34812;49.846;9.610;2023-02-28T04:54:38;-2.50;99.90
16327;DHT22;34812;49.846;9.610;2023-02-28T04:55:40;-2.50;99.90
16327;DHT22;34812;49.846;9.610;2023-02-28T04:56:41;-2.50;99.90
16327;DHT22;34812;49.846;9.610;2023-02-28T04:57:42;-2.50;99.90
16327;DHT22;34812;49.846;9.610;2023-02-28T04:58:44;-2.50;99.90
16327;DHT22;34812;49.846;9.610;2023-02-28T04:59:45;-2.50;99.90
16327;DHT22;34812;49.846;9.610;2023-02-28T05:00:47;-2.50;99.90
16327;DHT22;34812;49.846;9.610;2023-02-28T05:01:48;-2.50;99.90
16327;DHT22;34812;49.846;9.610;2023-02-28T05:02:50;-2.50;99.90
16327;DHT22;34812;49.846;9.610;2023-02-28T05:03:53;-2.50;99.90
16327;DHT22;34812;49.846;9.610;2023-02-28T05:04:55;-2.50;99.90
16327;DHT22;34812;49.846;9.610;2023-02-28T05:05:56;-2.60;99.90
16327;DHT22;34812;49.846;9.610;2023-02-28T05:06:58;-2.50;99.90
16327;DHT22;34812;49.846;9.610;2023-02-28T05:07:58;-2.60;99.90
16327;DHT22;34812;49.846;9.610;2023-02-28T05:09:00;-2.50;99.90
16327;DHT22;34812;49.846;9.610;2023-02-28T05:10:03;-2.50;99.90
16327;DHT22;34812;49.846;9.610;2023-02-28T05:11:07;-2.50;99.90
16327;DHT22;34812;49.846;9.610;2023-02-28T05:12:09;-2.50;99.90
16327;DHT22;34812;49.846;9.610;2023-02-28T05:13:12;-2.60;99.90
16327;DHT22;34812;49.846;9.610;2023-02-28T05:14:14;-2.60;99.90
16327;DHT22;34812;49.846;9.610;2023-02-28T05:15:16;-2.50;99.90
16327;DHT22;34812;49.846;9.610;2023-02-28T05:16:18;-2.60;99.90
16327;DHT22;34812;49.846;9.610;2023-02-28T05:17:20;-2.60;99.90
16327;DHT22;34812;49.846;9.610;2023-02-28T05:18:20;-2.60;99.90
16327;DHT22;34812;49.846;9.610;2023-02-28T05:19:22;-2.60;99.90
16327;DHT22;34812;49.846;9.610;2023-02-28T05:20:23;-2.70;99.90
16327;DHT22;34812;49.846;9.610;2023-02-28T05:21:28;-2.70;99.90
16327;DHT22;34812;49.846;9.610;2023-02-28T05:22:29;-2.70;99.90
16327;DHT22;34812;49.846;9.610;2023-02-28T05:23:31;-2.80;99.90
16327;DHT22;34812;49.846;9.610;2023-02-28T05:24:32;-2.80;99.90
16327;DHT22;34812;49.846;9.610;2023-02-28T05:25:35;-2.90;99.90
16327;DHT22;34812;49.846;9.610;2023-02-28T05:26:37;-2.90;99.90
16327;DHT22;34812;49.846;9.610;2023-02-28T05:27:39;-2.90;99.90
16327;DHT22;34812;49.846;9.610;2023-02-28T05:28:40;-2.90;99.90
16327;DHT22;34812;49.846;9.610;2023-02-28T05:29:41;-2.90;99.90
16327;DHT22;34812;49.846;9.610;2023-02-28T05:30:47;-2.80;99.90
16327;DHT22;34812;49.846;9.610;2023-02-28T05:31:47;-2.80;99.90
16327;DHT22;34812;49.846;9.610;2023-02-28T05:32:51;-2.90;99.90
16327;DHT22;34812;49.846;9.610;2023-02-28T05:33:51;-2.80;99.90
16327;DHT22;34812;49.846;9.610;2023-02-28T05:34:53;-2.90;99.90
16327;DHT22;34812;49.846;9.610;2023-02-28T05:35:54;-2.90;99.90
16327;DHT22;34812;49.846;9.610;2023-02-28T05:36:56;-2.90;99.90
16327;DHT22;34812;49.846;9.610;2023-02-28T05:37:56;-3.00;99.90
16327;DHT22;34812;49.846;9.610;2023-02-28T05:38:58;-3.00;99.90
16327;DHT22;34812;49.846;9.610;2023-02-28T05:39:59;-3.00;99.90
16327;DHT22;34812;49.846;9.610;2023-02-28T05:41:06;-3.10;99.90
16327;DHT22;34812;49.846;9.610;2023-02-28T05:42:07;-3.10;99.90
16327;DHT22;34812;49.846;9.610;2023-02-28T05:43:10;-3.20;99.90
16327;DHT22;34812;49.846;9.610;2023-02-28T05:44:12;-3.20;99.90
16327;DHT22;34812;49.846;9.610;2023-02-28T05:45:13;-3.20;99.90
16327;DHT22;34812;49.846;9.610;2023-02-28T05:46:15;-3.30;99.90
16327;DHT22;34812;49.846;9.610;2023-02-28T05:47:17;-3.30;99.90
16327;DHT22;34812;49.846;9.610;2023-02-28T05:48:18;-3.30;99.90
16327;DHT22;34812;49.846;9.610;2023-02-28T05:49:19;-3.40;99.90
16327;DHT22;34812;49.846;9.610;2023-02-28T05:50:20;-3.40;99.90
16327;DHT22;34812;49.846;9.610;2023-02-28T05:51:22;-3.40;99.90
16327;DHT22;34812;49.846;9.610;2023-02-28T05:52:23;-3.50;99.90
16327;DHT22;34812;49.846;9.610;2023-02-28T05:53:24;-3.50;99.90
16327;DHT22;34812;49.846;9.610;2023-02-28T05:54:26;-3.40;99.90
16327;DHT22;34812;49.846;9.610;2023-02-28T05:55:28;-3.40;99.90
16327;DHT22;34812;49.846;9.610;2023-02-28T05:56:30;-3.10;99.90
16327;DHT22;34812;49.846;9.610;2023-02-28T05:57:34;-3.50;99.90
16327;DHT22;34812;49.846;9.610;2023-02-28T05:58:35;-3.50;99.90
16327;DHT22;34812;49.846;9.610;2023-02-28T05:59:37;-3.50;99.90
16327;DHT22;34812;49.846;9.610;2023-02-28T06:00:40;-3.50;99.90
16327;DHT22;34812;49.846;9.610;2023-02-28T06:01:42;-3.50;99.90
16327;DHT22;34812;49.846;9.610;2023-02-28T06:02:48;-3.60;99.90
16327;DHT22;34812;49.846;9.610;2023-02-28T06:03:49;-3.60;99.90
16327;DHT22;34812;49.846;9.610;2023-02-28T06:04:51;-3.60;99.90
16327;DHT22;34812;49.846;9.610;2023-02-28T06:05:53;-3.60;99.90
16327;DHT22;34812;49.846;9.610;2023-02-28T06:06:54;-3.60;99.90
16327;DHT22;34812;49.846;9.610;2023-02-28T06:07:57;-3.60;99.90
16327;DHT22;34812;49.846;9.610;2023-02-28T06:09:00;-3.60;99.90
16327;DHT22;34812;49.846;9.610;2023-02-28T06:10:01;-3.60;99.90
16327;DHT22;34812;49.846;9.610;2023-02-28T06:11:03;-3.60;99.90
16327;DHT22;34812;49.846;9.610;2023-02-28T06:12:06;-3.60;99.90
16327;DHT22;34812;49.846;9.610;2023-02-28T06:13:10;-3.60;99.90
16327;DHT22;34812;49.846;9.610;2023-02-28T06:14:14;-3.60;99.90
16327;DHT22;34812;49.846;9.610;2023-02-28T06:15:16;-3.60;99.90
16327;DHT22;34812;49.846;9.610;2023-02-28T06:16:17;-3.60;99.90
16327;DHT22;34812;49.846;9.610;2023-02-28T06:17:19;-3.60;99.90
16327;DHT22;34812;49.846;9.610;2023-02-28T06:18:20;-3.50;99.90
16327;DHT22;34812;49.846;9.610;2023-02-28T06:19:21;-3.60;99.90
16327;DHT22;34812;49.846;9.610;2023-02-28T06:20:24;-3.50;99.90
16327;DHT22;34812;49.846;9.610;2023-02-28T06:21:26;-3.50;99.90
16327;DHT22;34812;49.846;9.610;2023-02-28T06:22:27;-3.50;99.90
16327;DHT22;34812;49.846;9.610;2023-02-28T06:23:29;-3.50;99.90
16327;DHT22;34812;49.846;9.610;2023-02-28T06:24:30;-3.50;99.90
16327;DHT22;34812;49.846;9.610;2023-02-28T06:25:32;-3.50;99.90
16327;DHT22;34812;49.846;9.610;2023-02-28T06:26:33;-3.50;99.90
16327;DHT22;34812;49.846;9.610;2023-02-28T06:27:36;-3.50;99.90
16327;DHT22;34812;49.846;9.610;2023-02-28T06:28:37;-3.50;99.90
16327;DHT22;34812;49.846;9.610;2023-02-28T06:29:39;-3.50;99.90
16327;DHT22;34812;49.846;9.610;2023-02-28T06:30:40;-3.50;99.90
16327;DHT22;34812;49.846;9.610;2023-02-28T06:31:41;-3.50;99.90
16327;DHT22;34812;49.846;9.610;2023-02-28T06:32:42;-3.50;99.90
16327;DHT22;34812;49.846;9.610;2023-02-28T06:33:45;-3.40;99.90
16327;DHT22;34812;49.846;9.610;2023-02-28T06:34:47;-3.50;99.90
16327;DHT22;34812;49.846;9.610;2023-02-28T06:35:50;-3.50;99.90
16327;DHT22;34812;49.846;9.610;2023-02-28T06:36:52;-3.40;99.90
16327;DHT22;34812;49.846;9.610;2023-02-28T06:37:53;-3.40;99.90
16327;DHT22;34812;49.846;9.610;2023-02-28T06:38:55;-3.40;99.90
16327;DHT22;34812;49.846;9.610;2023-02-28T06:39:56;-3.40;99.90
16327;DHT22;34812;49.846;9.610;2023-02-28T06:40:59;-3.40;99.90
16327;DHT22;34812;49.846;9.610;2023-02-28T06:42:00;-3.40;99.90
16327;DHT22;34812;49.846;9.610;2023-02-28T06:43:03;-3.40;99.90
16327;DHT22;34812;49.846;9.610;2023-02-28T06:44:05;-3.40;99.90
16327;DHT22;34812;49.846;9.610;2023-02-28T06:45:07;-3.40;99.90
16327;DHT22;34812;49.846;9.610;2023-02-28T06:46:12;-3.40;99.90
16327;DHT22;34812;49.846;9.610;2023-02-28T06:47:14;-3.40;99.90
16327;DHT22;34812;49.846;9.610;2023-02-28T06:48:16;-3.40;99.90
16327;DHT22;34812;49.846;9.610;2023-02-28T06:49:18;-3.40;99.90